sensor_id;sensor_type;location;lat;lon;timestamp;P1;durP1;ratioP1;P2;durP2;ratioP2
24897;SDS011;12957;49.434;8.684;2023-07-31T00:02:10;2.47;;;1.48;;
24897;SDS011;12957;49.434;8.684;2023-07-31T00:04:35;3.22;;;1.80;;
24897;SDS011;12957;49.434;8.684;2023-07-31T00:07:00;7.15;;;1.60;;
24897;SDS011;12957;49.434;8.684;2023-07-31T00:09:29;5.32;;;2.05;;
24897;SDS011;12957;49.434;8.684;2023-07-31T00:11:56;3.25;;;1.55;;
24897;SDS011;12957;49.434;8.684;2023-07-31T00:14:22;5.85;;;1.98;;
24897;SDS011;12957;49.434;8.684;2023-07-31T00:16:47;2.97;;;1.55;;
24897;SDS011;12957;49.434;8.684;2023-07-31T00:19:13;7.00;;;1.75;;
24897;SDS011;12957;49.434;8.684;2023-07-31T00:21:38;5.57;;;1.80;;
24897;SDS011;12957;49.434;8.684;2023-07-31T00:24:04;3.55;;;1.80;;
24897;SDS011;12957;49.434;8.684;2023-07-31T00:26:29;4.88;;;1.70;;
24897;SDS011;12957;49.434;8.684;2023-07-31T00:28:56;3.70;;;1.65;;
24897;SDS011;12957;49.434;8.684;2023-07-31T00:31:21;3.00;;;1.90;;
24897;SDS011;12957;49.434;8.684;2023-07-31T00:33:50;3.47;;;1.75;;
24897;SDS011;12957;49.434;8.684;2023-07-31T00:36:15;5.43;;;1.98;;
24897;SDS011;12957;49.434;8.684;2023-07-31T00:38:46;4.93;;;2.15;;
24897;SDS011;12957;49.434;8.684;2023-07-31T00:41:11;5.00;;;1.90;;
24897;SDS011;12957;49.434;8.684;2023-07-31T00:43:36;7.38;;;1.88;;
24897;SDS011;12957;49.434;8.684;2023-07-31T00:46:02;3.53;;;1.50;;
24897;SDS011;12957;49.434;8.684;2023-07-31T00:48:27;5.07;;;1.70;;
24897;SDS011;12957;49.434;8.684;2023-07-31T00:50:53;5.78;;;1.90;;
24897;SDS011;12957;49.434;8.684;2023-07-31T00:53:19;4.18;;;1.75;;
24897;SDS011;12957;49.434;8.684;2023-07-31T00:55:44;3.92;;;1.75;;
24897;SDS011;12957;49.434;8.684;2023-07-31T00:58:10;4.25;;;1.50;;
24897;SDS011;12957;49.434;8.684;2023-07-31T01:00:35;2.55;;;1.52;;
24897;SDS011;12957;49.434;8.684;2023-07-31T01:03:01;3.55;;;1.58;;
24897;SDS011;12957;49.434;8.684;2023-07-31T01:05:33;8.35;;;1.60;;
24897;SDS011;12957;49.434;8.684;2023-07-31T01:08:12;5.82;;;1.65;;
24897;SDS011;12957;49.434;8.684;2023-07-31T01:10:49;6.03;;;1.70;;
24897;SDS011;12957;49.434;8.684;2023-07-31T01:13:17;5.25;;;1.80;;
24897;SDS011;12957;49.434;8.684;2023-07-31T01:15:43;4.97;;;1.77;;
24897;SDS011;12957;49.434;8.684;2023-07-31T01:18:08;3.72;;;1.73;;
24897;SDS011;12957;49.434;8.684;2023-07-31T01:20:33;5.63;;;1.80;;
24897;SDS011;12957;49.434;8.684;2023-07-31T01:26:21;3.90;;;1.80;;
24897;SDS011;12957;49.434;8.684;2023-07-31T01:31:18;5.93;;;1.50;;
24897;SDS011;12957;49.434;8.684;2023-07-31T01:33:45;3.83;;;1.70;;
24897;SDS011;12957;49.434;8.684;2023-07-31T01:36:11;2.53;;;1.85;;
24897;SDS011;12957;49.434;8.684;2023-07-31T01:38:37;4.20;;;2.03;;
24897;SDS011;12957;49.434;8.684;2023-07-31T01:41:02;6.85;;;1.75;;
24897;SDS011;12957;49.434;8.684;2023-07-31T01:43:30;4.32;;;1.83;;
24897;SDS011;12957;49.434;8.684;2023-07-31T01:45:55;5.68;;;1.70;;
24897;SDS011;12957;49.434;8.684;2023-07-31T01:48:21;5.28;;;1.80;;
24897;SDS011;12957;49.434;8.684;2023-07-31T01:50:46;8.25;;;2.15;;
24897;SDS011;12957;49.434;8.684;2023-07-31T01:53:12;2.83;;;1.85;;
24897;SDS011;12957;49.434;8.684;2023-07-31T01:55:38;3.63;;;1.65;;
24897;SDS011;12957;49.434;8.684;2023-07-31T01:58:03;4.47;;;1.85;;
24897;SDS011;12957;49.434;8.684;2023-07-31T02:00:29;3.63;;;1.45;;
24897;SDS011;12957;49.434;8.684;2023-07-31T02:02:54;4.10;;;1.70;;
24897;SDS011;12957;49.434;8.684;2023-07-31T02:05:20;3.03;;;1.70;;
24897;SDS011;12957;49.434;8.684;2023-07-31T02:07:45;3.97;;;1.92;;
24897;SDS011;12957;49.434;8.684;2023-07-31T02:10:12;9.20;;;1.75;;
24897;SDS011;12957;49.434;8.684;2023-07-31T02:12:38;6.13;;;1.90;;
24897;SDS011;12957;49.434;8.684;2023-07-31T02:15:03;7.70;;;1.88;;
24897;SDS011;12957;49.434;8.684;2023-07-31T02:17:29;5.25;;;2.15;;
24897;SDS011;12957;49.434;8.684;2023-07-31T02:19:55;3.50;;;1.70;;
24897;SDS011;12957;49.434;8.684;2023-07-31T02:22:20;3.95;;;1.85;;
24897;SDS011;12957;49.434;8.684;2023-07-31T02:24:46;2.35;;;1.70;;
24897;SDS011;12957;49.434;8.684;2023-07-31T02:27:11;5.45;;;1.80;;
24897;SDS011;12957;49.434;8.684;2023-07-31T02:29:37;9.30;;;1.90;;
24897;SDS011;12957;49.434;8.684;2023-07-31T02:32:05;5.32;;;1.67;;
24897;SDS011;12957;49.434;8.684;2023-07-31T02:34:31;4.15;;;1.90;;
24897;SDS011;12957;49.434;8.684;2023-07-31T02:36:56;3.85;;;1.88;;
24897;SDS011;12957;49.434;8.684;2023-07-31T02:39:22;3.38;;;1.70;;
24897;SDS011;12957;49.434;8.684;2023-07-31T02:41:47;3.65;;;1.80;;
24897;SDS011;12957;49.434;8.684;2023-07-31T02:44:13;4.93;;;2.00;;
24897;SDS011;12957;49.434;8.684;2023-07-31T02:46:39;2.83;;;1.98;;
24897;SDS011;12957;49.434;8.684;2023-07-31T02:49:05;3.45;;;2.00;;
24897;SDS011;12957;49.434;8.684;2023-07-31T02:51:30;4.82;;;1.90;;
24897;SDS011;12957;49.434;8.684;2023-07-31T02:53:56;4.57;;;1.77;;
24897;SDS011;12957;49.434;8.684;2023-07-31T02:56:21;5.88;;;1.80;;
24897;SDS011;12957;49.434;8.684;2023-07-31T02:58:47;4.13;;;1.80;;
24897;SDS011;12957;49.434;8.684;2023-07-31T03:01:12;6.55;;;2.03;;
24897;SDS011;12957;49.434;8.684;2023-07-31T03:03:38;5.40;;;2.13;;
24897;SDS011;12957;49.434;8.684;2023-07-31T03:06:03;2.88;;;1.70;;
24897;SDS011;12957;49.434;8.684;2023-07-31T03:08:31;4.85;;;2.38;;
24897;SDS011;12957;49.434;8.684;2023-07-31T03:10:57;4.25;;;1.90;;
24897;SDS011;12957;49.434;8.684;2023-07-31T03:13:22;3.08;;;2.00;;
24897;SDS011;12957;49.434;8.684;2023-07-31T03:15:48;6.93;;;1.95;;
24897;SDS011;12957;49.434;8.684;2023-07-31T03:18:13;5.15;;;1.92;;
24897;SDS011;12957;49.434;8.684;2023-07-31T03:20:41;3.10;;;1.80;;
24897;SDS011;12957;49.434;8.684;2023-07-31T03:23:08;6.07;;;1.92;;
24897;SDS011;12957;49.434;8.684;2023-07-31T03:25:33;9.93;;;2.00;;
24897;SDS011;12957;49.434;8.684;2023-07-31T03:27:59;4.18;;;2.05;;
24897;SDS011;12957;49.434;8.684;2023-07-31T03:30:24;9.80;;;2.25;;
24897;SDS011;12957;49.434;8.684;2023-07-31T03:32:50;7.40;;;2.88;;
24897;SDS011;12957;49.434;8.684;2023-07-31T03:35:15;7.40;;;2.42;;
24897;SDS011;12957;49.434;8.684;2023-07-31T03:37:40;3.13;;;1.70;;
24897;SDS011;12957;49.434;8.684;2023-07-31T03:40:06;4.65;;;1.80;;
24897;SDS011;12957;49.434;8.684;2023-07-31T03:42:32;4.75;;;1.92;;
24897;SDS011;12957;49.434;8.684;2023-07-31T03:44:57;8.00;;;2.40;;
24897;SDS011;12957;49.434;8.684;2023-07-31T03:47:23;3.95;;;1.80;;
24897;SDS011;12957;49.434;8.684;2023-07-31T03:49:48;4.03;;;2.13;;
24897;SDS011;12957;49.434;8.684;2023-07-31T03:52:14;2.83;;;1.75;;
24897;SDS011;12957;49.434;8.684;2023-07-31T03:54:39;7.22;;;2.50;;
24897;SDS011;12957;49.434;8.684;2023-07-31T03:57:05;3.10;;;1.88;;
24897;SDS011;12957;49.434;8.684;2023-07-31T03:59:30;5.03;;;2.17;;
24897;SDS011;12957;49.434;8.684;2023-07-31T04:01:56;5.68;;;1.90;;
24897;SDS011;12957;49.434;8.684;2023-07-31T04:04:21;2.40;;;2.00;;
24897;SDS011;12957;49.434;8.684;2023-07-31T04:06:47;3.08;;;1.90;;
24897;SDS011;12957;49.434;8.684;2023-07-31T04:09:12;2.80;;;1.90;;
24897;SDS011;12957;49.434;8.684;2023-07-31T04:11:38;5.53;;;2.22;;
24897;SDS011;12957;49.434;8.684;2023-07-31T04:14:04;5.05;;;1.90;;
24897;SDS011;12957;49.434;8.684;2023-07-31T04:16:29;5.20;;;1.90;;
24897;SDS011;12957;49.434;8.684;2023-07-31T04:18:55;4.55;;;2.22;;
24897;SDS011;12957;49.434;8.684;2023-07-31T04:21:20;6.78;;;2.00;;
24897;SDS011;12957;49.434;8.684;2023-07-31T04:23:46;6.18;;;2.15;;
24897;SDS011;12957;49.434;8.684;2023-07-31T04:26:11;8.57;;;2.20;;
24897;SDS011;12957;49.434;8.684;2023-07-31T04:28:37;5.82;;;2.22;;
24897;SDS011;12957;49.434;8.684;2023-07-31T04:31:02;7.03;;;2.53;;
24897;SDS011;12957;49.434;8.684;2023-07-31T04:33:28;2.92;;;1.80;;
24897;SDS011;12957;49.434;8.684;2023-07-31T04:35:53;2.35;;;2.10;;
24897;SDS011;12957;49.434;8.684;2023-07-31T04:38:20;5.38;;;1.90;;
24897;SDS011;12957;49.434;8.684;2023-07-31T04:40:46;8.32;;;2.00;;
24897;SDS011;12957;49.434;8.684;2023-07-31T04:43:11;6.00;;;2.20;;
24897;SDS011;12957;49.434;8.684;2023-07-31T04:45:37;4.03;;;1.85;;
24897;SDS011;12957;49.434;8.684;2023-07-31T04:48:05;6.07;;;2.50;;
24897;SDS011;12957;49.434;8.684;2023-07-31T04:50:31;4.38;;;2.20;;
24897;SDS011;12957;49.434;8.684;2023-07-31T04:52:57;4.47;;;2.25;;
24897;SDS011;12957;49.434;8.684;2023-07-31T04:55:23;5.35;;;2.00;;
24897;SDS011;12957;49.434;8.684;2023-07-31T04:57:48;4.60;;;2.05;;
24897;SDS011;12957;49.434;8.684;2023-07-31T05:00:14;4.22;;;2.00;;
24897;SDS011;12957;49.434;8.684;2023-07-31T05:02:39;6.28;;;1.92;;
24897;SDS011;12957;49.434;8.684;2023-07-31T05:05:05;5.15;;;2.10;;
24897;SDS011;12957;49.434;8.684;2023-07-31T05:07:31;5.68;;;2.40;;
24897;SDS011;12957;49.434;8.684;2023-07-31T05:09:56;6.32;;;2.50;;
24897;SDS011;12957;49.434;8.684;2023-07-31T05:12:22;5.82;;;2.40;;
24897;SDS011;12957;49.434;8.684;2023-07-31T05:14:47;8.95;;;2.35;;
24897;SDS011;12957;49.434;8.684;2023-07-31T05:17:15;9.00;;;2.17;;
24897;SDS011;12957;49.434;8.684;2023-07-31T05:19:40;2.67;;;2.42;;
24897;SDS011;12957;49.434;8.684;2023-07-31T05:22:06;5.97;;;2.30;;
24897;SDS011;12957;49.434;8.684;2023-07-31T05:24:31;4.13;;;2.50;;
24897;SDS011;12957;49.434;8.684;2023-07-31T05:26:57;3.92;;;2.33;;
24897;SDS011;12957;49.434;8.684;2023-07-31T05:29:22;4.78;;;2.60;;
24897;SDS011;12957;49.434;8.684;2023-07-31T05:31:48;6.07;;;2.22;;
24897;SDS011;12957;49.434;8.684;2023-07-31T05:34:13;5.45;;;2.53;;
24897;SDS011;12957;49.434;8.684;2023-07-31T05:36:39;5.72;;;2.20;;
24897;SDS011;12957;49.434;8.684;2023-07-31T05:39:04;6.35;;;2.45;;
24897;SDS011;12957;49.434;8.684;2023-07-31T05:41:33;5.22;;;2.20;;
24897;SDS011;12957;49.434;8.684;2023-07-31T05:43:59;6.22;;;2.67;;
24897;SDS011;12957;49.434;8.684;2023-07-31T05:46:25;6.35;;;2.38;;
24897;SDS011;12957;49.434;8.684;2023-07-31T05:48:50;5.00;;;2.53;;
24897;SDS011;12957;49.434;8.684;2023-07-31T05:51:16;4.95;;;2.50;;
24897;SDS011;12957;49.434;8.684;2023-07-31T05:53:41;4.72;;;2.38;;
24897;SDS011;12957;49.434;8.684;2023-07-31T05:56:08;4.82;;;2.45;;
24897;SDS011;12957;49.434;8.684;2023-07-31T05:58:34;9.60;;;2.47;;
24897;SDS011;12957;49.434;8.684;2023-07-31T06:00:59;3.35;;;2.28;;
24897;SDS011;12957;49.434;8.684;2023-07-31T06:03:27;7.88;;;2.00;;
24897;SDS011;12957;49.434;8.684;2023-07-31T06:05:53;8.40;;;2.50;;
24897;SDS011;12957;49.434;8.684;2023-07-31T06:08:18;10.52;;;2.50;;
24897;SDS011;12957;49.434;8.684;2023-07-31T06:10:44;4.30;;;2.30;;
24897;SDS011;12957;49.434;8.684;2023-07-31T06:13:09;4.50;;;2.17;;
24897;SDS011;12957;49.434;8.684;2023-07-31T06:15:35;4.85;;;2.25;;
24897;SDS011;12957;49.434;8.684;2023-07-31T06:18:00;5.13;;;2.63;;
24897;SDS011;12957;49.434;8.684;2023-07-31T06:20:27;7.65;;;2.15;;
24897;SDS011;12957;49.434;8.684;2023-07-31T06:22:53;6.18;;;2.33;;
24897;SDS011;12957;49.434;8.684;2023-07-31T06:25:18;5.40;;;2.63;;
24897;SDS011;12957;49.434;8.684;2023-07-31T06:27:44;4.70;;;2.20;;
24897;SDS011;12957;49.434;8.684;2023-07-31T06:30:10;4.45;;;2.10;;
24897;SDS011;12957;49.434;8.684;2023-07-31T06:32:35;2.78;;;2.20;;
24897;SDS011;12957;49.434;8.684;2023-07-31T06:35:03;2.80;;;2.00;;
24897;SDS011;12957;49.434;8.684;2023-07-31T06:37:29;5.60;;;1.95;;
24897;SDS011;12957;49.434;8.684;2023-07-31T06:39:54;3.38;;;2.20;;
24897;SDS011;12957;49.434;8.684;2023-07-31T06:42:20;2.47;;;1.92;;
24897;SDS011;12957;49.434;8.684;2023-07-31T06:44:46;9.45;;;2.75;;
24897;SDS011;12957;49.434;8.684;2023-07-31T06:47:11;6.18;;;2.03;;
24897;SDS011;12957;49.434;8.684;2023-07-31T06:49:37;5.22;;;2.10;;
24897;SDS011;12957;49.434;8.684;2023-07-31T06:52:02;4.80;;;2.08;;
24897;SDS011;12957;49.434;8.684;2023-07-31T06:54:28;12.48;;;1.95;;
24897;SDS011;12957;49.434;8.684;2023-07-31T06:56:53;3.42;;;2.00;;
24897;SDS011;12957;49.434;8.684;2023-07-31T06:59:19;7.72;;;2.30;;
24897;SDS011;12957;49.434;8.684;2023-07-31T07:01:44;4.72;;;1.95;;
24897;SDS011;12957;49.434;8.684;2023-07-31T07:04:10;6.00;;;2.47;;
24897;SDS011;12957;49.434;8.684;2023-07-31T07:06:35;8.10;;;2.08;;
24897;SDS011;12957;49.434;8.684;2023-07-31T07:09:01;5.53;;;2.40;;
24897;SDS011;12957;49.434;8.684;2023-07-31T07:11:27;4.85;;;2.10;;
24897;SDS011;12957;49.434;8.684;2023-07-31T07:13:52;6.28;;;2.45;;
24897;SDS011;12957;49.434;8.684;2023-07-31T07:16:18;6.85;;;2.20;;
24897;SDS011;12957;49.434;8.684;2023-07-31T07:18:43;4.80;;;2.42;;
24897;SDS011;12957;49.434;8.684;2023-07-31T07:21:09;8.07;;;2.20;;
24897;SDS011;12957;49.434;8.684;2023-07-31T07:23:34;2.45;;;1.90;;
24897;SDS011;12957;49.434;8.684;2023-07-31T07:26:00;4.97;;;2.28;;
24897;SDS011;12957;49.434;8.684;2023-07-31T07:28:25;4.22;;;2.53;;
24897;SDS011;12957;49.434;8.684;2023-07-31T07:30:53;5.28;;;1.95;;
24897;SDS011;12957;49.434;8.684;2023-07-31T07:33:20;3.10;;;2.00;;
24897;SDS011;12957;49.434;8.684;2023-07-31T07:35:46;5.43;;;2.00;;
24897;SDS011;12957;49.434;8.684;2023-07-31T07:38:13;8.57;;;2.42;;
24897;SDS011;12957;49.434;8.684;2023-07-31T07:40:39;5.30;;;2.15;;
24897;SDS011;12957;49.434;8.684;2023-07-31T07:43:05;4.40;;;2.20;;
24897;SDS011;12957;49.434;8.684;2023-07-31T07:45:31;4.15;;;2.13;;
24897;SDS011;12957;49.434;8.684;2023-07-31T07:47:56;5.00;;;2.45;;
24897;SDS011;12957;49.434;8.684;2023-07-31T07:50:22;6.32;;;2.45;;
24897;SDS011;12957;49.434;8.684;2023-07-31T07:52:48;2.45;;;1.98;;
24897;SDS011;12957;49.434;8.684;2023-07-31T07:55:13;4.25;;;2.08;;
24897;SDS011;12957;49.434;8.684;2023-07-31T07:57:39;4.20;;;2.20;;
24897;SDS011;12957;49.434;8.684;2023-07-31T08:00:05;2.85;;;2.15;;
24897;SDS011;12957;49.434;8.684;2023-07-31T08:02:31;3.78;;;2.05;;
24897;SDS011;12957;49.434;8.684;2023-07-31T08:04:56;4.18;;;2.28;;
24897;SDS011;12957;49.434;8.684;2023-07-31T08:07:22;4.70;;;2.30;;
24897;SDS011;12957;49.434;8.684;2023-07-31T08:09:48;8.98;;;2.45;;
24897;SDS011;12957;49.434;8.684;2023-07-31T08:12:13;10.00;;;2.47;;
24897;SDS011;12957;49.434;8.684;2023-07-31T08:14:39;3.92;;;2.20;;
24897;SDS011;12957;49.434;8.684;2023-07-31T08:17:08;6.00;;;2.67;;
24897;SDS011;12957;49.434;8.684;2023-07-31T08:19:34;5.10;;;2.45;;
24897;SDS011;12957;49.434;8.684;2023-07-31T08:21:59;3.67;;;2.13;;
24897;SDS011;12957;49.434;8.684;2023-07-31T08:24:25;9.07;;;2.35;;
24897;SDS011;12957;49.434;8.684;2023-07-31T08:26:50;3.92;;;2.20;;
24897;SDS011;12957;49.434;8.684;2023-07-31T08:29:16;6.55;;;2.22;;
24897;SDS011;12957;49.434;8.684;2023-07-31T08:31:41;6.55;;;2.10;;
24897;SDS011;12957;49.434;8.684;2023-07-31T08:34:07;7.40;;;2.20;;
24897;SDS011;12957;49.434;8.684;2023-07-31T08:36:34;7.80;;;2.50;;
24897;SDS011;12957;49.434;8.684;2023-07-31T08:39:00;8.38;;;2.25;;
24897;SDS011;12957;49.434;8.684;2023-07-31T08:41:25;6.95;;;2.60;;
24897;SDS011;12957;49.434;8.684;2023-07-31T08:43:52;6.13;;;2.40;;
24897;SDS011;12957;49.434;8.684;2023-07-31T08:46:18;4.45;;;2.53;;
24897;SDS011;12957;49.434;8.684;2023-07-31T08:48:45;9.57;;;2.30;;
24897;SDS011;12957;49.434;8.684;2023-07-31T08:51:13;7.15;;;2.42;;
24897;SDS011;12957;49.434;8.684;2023-07-31T08:53:39;3.70;;;2.30;;
24897;SDS011;12957;49.434;8.684;2023-07-31T08:56:04;6.55;;;2.30;;
24897;SDS011;12957;49.434;8.684;2023-07-31T08:58:34;8.73;;;2.42;;
24897;SDS011;12957;49.434;8.684;2023-07-31T09:01:04;10.48;;;2.65;;
24897;SDS011;12957;49.434;8.684;2023-07-31T09:03:32;5.68;;;2.10;;
24897;SDS011;12957;49.434;8.684;2023-07-31T09:05:58;6.88;;;2.60;;
24897;SDS011;12957;49.434;8.684;2023-07-31T09:08:24;3.97;;;2.22;;
24897;SDS011;12957;49.434;8.684;2023-07-31T09:10:52;8.27;;;2.50;;
24897;SDS011;12957;49.434;8.684;2023-07-31T09:13:17;4.35;;;2.38;;
24897;SDS011;12957;49.434;8.684;2023-07-31T09:15:44;5.68;;;2.45;;
24897;SDS011;12957;49.434;8.684;2023-07-31T09:18:10;5.07;;;2.38;;
24897;SDS011;12957;49.434;8.684;2023-07-31T09:20:36;11.23;;;2.65;;
24897;SDS011;12957;49.434;8.684;2023-07-31T09:23:06;6.03;;;2.90;;
24897;SDS011;12957;49.434;8.684;2023-07-31T09:25:37;4.43;;;2.15;;
24897;SDS011;12957;49.434;8.684;2023-07-31T09:28:04;3.55;;;2.35;;
24897;SDS011;12957;49.434;8.684;2023-07-31T09:33:15;6.68;;;2.30;;
24897;SDS011;12957;49.434;8.684;2023-07-31T09:35:41;9.40;;;2.50;;
24897;SDS011;12957;49.434;8.684;2023-07-31T09:38:11;4.07;;;2.45;;
24897;SDS011;12957;49.434;8.684;2023-07-31T09:40:38;4.55;;;2.50;;
24897;SDS011;12957;49.434;8.684;2023-07-31T09:43:05;4.65;;;2.42;;
24897;SDS011;12957;49.434;8.684;2023-07-31T09:45:55;4.93;;;2.33;;
24897;SDS011;12957;49.434;8.684;2023-07-31T09:48:22;10.80;;;2.97;;
24897;SDS011;12957;49.434;8.684;2023-07-31T09:50:50;5.43;;;2.83;;
24897;SDS011;12957;49.434;8.684;2023-07-31T09:53:16;6.90;;;2.70;;
24897;SDS011;12957;49.434;8.684;2023-07-31T09:55:42;5.32;;;2.33;;
24897;SDS011;12957;49.434;8.684;2023-07-31T09:58:09;5.30;;;2.80;;
24897;SDS011;12957;49.434;8.684;2023-07-31T10:00:36;4.93;;;2.58;;
24897;SDS011;12957;49.434;8.684;2023-07-31T10:03:03;9.75;;;2.97;;
24897;SDS011;12957;49.434;8.684;2023-07-31T10:05:37;4.13;;;2.60;;
24897;SDS011;12957;49.434;8.684;2023-07-31T10:08:08;4.68;;;2.35;;
24897;SDS011;12957;49.434;8.684;2023-07-31T10:10:35;10.13;;;2.42;;
24897;SDS011;12957;49.434;8.684;2023-07-31T10:13:01;6.82;;;2.60;;
24897;SDS011;12957;49.434;8.684;2023-07-31T10:15:27;5.00;;;2.55;;
24897;SDS011;12957;49.434;8.684;2023-07-31T10:17:53;4.53;;;2.55;;
24897;SDS011;12957;49.434;8.684;2023-07-31T10:20:19;6.70;;;2.45;;
24897;SDS011;12957;49.434;8.684;2023-07-31T10:22:45;5.80;;;2.20;;
24897;SDS011;12957;49.434;8.684;2023-07-31T10:25:11;4.63;;;2.20;;
24897;SDS011;12957;49.434;8.684;2023-07-31T10:27:40;6.07;;;2.60;;
24897;SDS011;12957;49.434;8.684;2023-07-31T10:30:08;7.30;;;2.90;;
24897;SDS011;12957;49.434;8.684;2023-07-31T10:32:35;8.65;;;2.50;;
24897;SDS011;12957;49.434;8.684;2023-07-31T10:35:03;7.88;;;2.72;;
24897;SDS011;12957;49.434;8.684;2023-07-31T10:37:37;7.20;;;2.67;;
24897;SDS011;12957;49.434;8.684;2023-07-31T10:42:33;13.52;;;3.13;;
24897;SDS011;12957;49.434;8.684;2023-07-31T10:45:02;5.78;;;3.15;;
24897;SDS011;12957;49.434;8.684;2023-07-31T10:47:29;5.85;;;2.80;;
24897;SDS011;12957;49.434;8.684;2023-07-31T10:50:11;4.28;;;2.53;;
24897;SDS011;12957;49.434;8.684;2023-07-31T10:52:37;7.05;;;2.95;;
24897;SDS011;12957;49.434;8.684;2023-07-31T10:58:07;7.57;;;2.65;;
24897;SDS011;12957;49.434;8.684;2023-07-31T11:00:39;8.85;;;3.15;;
24897;SDS011;12957;49.434;8.684;2023-07-31T11:08:22;9.15;;;3.03;;
24897;SDS011;12957;49.434;8.684;2023-07-31T11:10:50;10.68;;;3.15;;
24897;SDS011;12957;49.434;8.684;2023-07-31T11:13:28;8.05;;;2.95;;
24897;SDS011;12957;49.434;8.684;2023-07-31T11:15:53;6.65;;;2.83;;
24897;SDS011;12957;49.434;8.684;2023-07-31T11:18:19;9.23;;;3.00;;
24897;SDS011;12957;49.434;8.684;2023-07-31T11:20:44;6.53;;;2.67;;
24897;SDS011;12957;49.434;8.684;2023-07-31T11:23:10;4.78;;;2.70;;
24897;SDS011;12957;49.434;8.684;2023-07-31T11:25:36;7.70;;;2.88;;
24897;SDS011;12957;49.434;8.684;2023-07-31T11:28:06;5.25;;;2.70;;
24897;SDS011;12957;49.434;8.684;2023-07-31T11:30:33;5.30;;;2.63;;
24897;SDS011;12957;49.434;8.684;2023-07-31T11:33:00;6.65;;;3.03;;
24897;SDS011;12957;49.434;8.684;2023-07-31T11:35:28;6.72;;;2.67;;
24897;SDS011;12957;49.434;8.684;2023-07-31T11:38:00;3.45;;;2.25;;
24897;SDS011;12957;49.434;8.684;2023-07-31T11:40:26;8.50;;;2.90;;
24897;SDS011;12957;49.434;8.684;2023-07-31T11:42:56;6.55;;;2.97;;
24897;SDS011;12957;49.434;8.684;2023-07-31T11:45:24;5.22;;;2.17;;
24897;SDS011;12957;49.434;8.684;2023-07-31T11:47:53;4.95;;;2.55;;
24897;SDS011;12957;49.434;8.684;2023-07-31T11:50:19;4.25;;;2.40;;
24897;SDS011;12957;49.434;8.684;2023-07-31T11:52:45;9.75;;;2.80;;
24897;SDS011;12957;49.434;8.684;2023-07-31T11:55:11;7.45;;;2.65;;
24897;SDS011;12957;49.434;8.684;2023-07-31T11:57:39;7.15;;;3.10;;
24897;SDS011;12957;49.434;8.684;2023-07-31T12:00:06;5.88;;;2.50;;
24897;SDS011;12957;49.434;8.684;2023-07-31T12:02:57;5.05;;;2.65;;
24897;SDS011;12957;49.434;8.684;2023-07-31T12:05:23;3.50;;;2.60;;
24897;SDS011;12957;49.434;8.684;2023-07-31T12:07:52;6.30;;;3.10;;
24897;SDS011;12957;49.434;8.684;2023-07-31T12:10:31;8.07;;;2.75;;
24897;SDS011;12957;49.434;8.684;2023-07-31T12:13:04;4.60;;;2.92;;
24897;SDS011;12957;49.434;8.684;2023-07-31T12:15:34;5.40;;;2.38;;
24897;SDS011;12957;49.434;8.684;2023-07-31T12:18:05;5.30;;;2.42;;
24897;SDS011;12957;49.434;8.684;2023-07-31T12:20:32;5.45;;;2.35;;
24897;SDS011;12957;49.434;8.684;2023-07-31T12:22:58;5.25;;;2.60;;
24897;SDS011;12957;49.434;8.684;2023-07-31T12:25:33;5.25;;;2.63;;
24897;SDS011;12957;49.434;8.684;2023-07-31T12:28:05;4.15;;;2.35;;
24897;SDS011;12957;49.434;8.684;2023-07-31T12:30:34;7.07;;;2.65;;
24897;SDS011;12957;49.434;8.684;2023-07-31T12:33:03;6.32;;;3.15;;
24897;SDS011;12957;49.434;8.684;2023-07-31T12:35:37;8.93;;;2.50;;
24897;SDS011;12957;49.434;8.684;2023-07-31T12:38:03;9.68;;;2.63;;
24897;SDS011;12957;49.434;8.684;2023-07-31T12:40:28;14.35;;;3.25;;
24897;SDS011;12957;49.434;8.684;2023-07-31T12:42:54;7.22;;;2.60;;
24897;SDS011;12957;49.434;8.684;2023-07-31T12:45:19;9.48;;;2.70;;
24897;SDS011;12957;49.434;8.684;2023-07-31T12:47:46;8.07;;;2.83;;
24897;SDS011;12957;49.434;8.684;2023-07-31T12:50:12;7.20;;;2.45;;
24897;SDS011;12957;49.434;8.684;2023-07-31T12:52:37;3.95;;;2.28;;
24897;SDS011;12957;49.434;8.684;2023-07-31T12:55:03;6.82;;;2.53;;
24897;SDS011;12957;49.434;8.684;2023-07-31T12:57:29;6.10;;;2.58;;
24897;SDS011;12957;49.434;8.684;2023-07-31T12:59:55;5.07;;;2.38;;
24897;SDS011;12957;49.434;8.684;2023-07-31T13:02:21;5.53;;;2.50;;
24897;SDS011;12957;49.434;8.684;2023-07-31T13:04:46;5.18;;;2.50;;
24897;SDS011;12957;49.434;8.684;2023-07-31T13:07:11;5.90;;;3.13;;
24897;SDS011;12957;49.434;8.684;2023-07-31T13:09:37;4.70;;;2.53;;
24897;SDS011;12957;49.434;8.684;2023-07-31T13:12:03;5.22;;;2.45;;
24897;SDS011;12957;49.434;8.684;2023-07-31T13:14:28;6.55;;;2.83;;
24897;SDS011;12957;49.434;8.684;2023-07-31T13:16:54;3.78;;;2.63;;
24897;SDS011;12957;49.434;8.684;2023-07-31T13:19:19;9.65;;;2.83;;
24897;SDS011;12957;49.434;8.684;2023-07-31T13:21:45;7.22;;;2.80;;
24897;SDS011;12957;49.434;8.684;2023-07-31T13:24:10;4.75;;;2.47;;
24897;SDS011;12957;49.434;8.684;2023-07-31T13:26:36;3.75;;;2.40;;
24897;SDS011;12957;49.434;8.684;2023-07-31T13:29:02;7.57;;;2.80;;
24897;SDS011;12957;49.434;8.684;2023-07-31T13:31:27;9.93;;;2.38;;
24897;SDS011;12957;49.434;8.684;2023-07-31T13:33:53;4.68;;;2.28;;
24897;SDS011;12957;49.434;8.684;2023-07-31T13:36:18;5.18;;;2.60;;
24897;SDS011;12957;49.434;8.684;2023-07-31T13:38:44;6.10;;;2.70;;
24897;SDS011;12957;49.434;8.684;2023-07-31T13:41:09;4.43;;;2.45;;
24897;SDS011;12957;49.434;8.684;2023-07-31T13:43:35;3.95;;;2.55;;
24897;SDS011;12957;49.434;8.684;2023-07-31T13:46:01;3.70;;;2.35;;
24897;SDS011;12957;49.434;8.684;2023-07-31T13:48:31;7.80;;;2.60;;
24897;SDS011;12957;49.434;8.684;2023-07-31T13:50:59;5.13;;;2.70;;
24897;SDS011;12957;49.434;8.684;2023-07-31T13:53:24;8.77;;;3.00;;
24897;SDS011;12957;49.434;8.684;2023-07-31T13:55:52;3.08;;;2.30;;
24897;SDS011;12957;49.434;8.684;2023-07-31T13:58:17;4.97;;;2.53;;
24897;SDS011;12957;49.434;8.684;2023-07-31T14:00:43;5.70;;;2.90;;
24897;SDS011;12957;49.434;8.684;2023-07-31T14:03:08;8.95;;;2.78;;
24897;SDS011;12957;49.434;8.684;2023-07-31T14:05:34;4.38;;;2.40;;
24897;SDS011;12957;49.434;8.684;2023-07-31T14:08:00;3.35;;;2.40;;
24897;SDS011;12957;49.434;8.684;2023-07-31T14:10:28;8.35;;;2.83;;
24897;SDS011;12957;49.434;8.684;2023-07-31T14:12:53;3.53;;;2.70;;
24897;SDS011;12957;49.434;8.684;2023-07-31T14:15:19;6.95;;;2.88;;
24897;SDS011;12957;49.434;8.684;2023-07-31T14:17:44;4.22;;;2.80;;
24897;SDS011;12957;49.434;8.684;2023-07-31T14:20:11;6.05;;;2.35;;
24897;SDS011;12957;49.434;8.684;2023-07-31T14:22:37;4.60;;;2.42;;
24897;SDS011;12957;49.434;8.684;2023-07-31T14:25:05;4.10;;;2.50;;
24897;SDS011;12957;49.434;8.684;2023-07-31T14:27:35;5.32;;;2.75;;
24897;SDS011;12957;49.434;8.684;2023-07-31T14:30:00;6.05;;;2.97;;
24897;SDS011;12957;49.434;8.684;2023-07-31T14:32:31;4.95;;;2.40;;
24897;SDS011;12957;49.434;8.684;2023-07-31T14:34:57;4.80;;;2.67;;
24897;SDS011;12957;49.434;8.684;2023-07-31T14:37:22;7.82;;;3.03;;
24897;SDS011;12957;49.434;8.684;2023-07-31T14:39:51;4.35;;;2.45;;
24897;SDS011;12957;49.434;8.684;2023-07-31T14:42:17;5.18;;;2.90;;
24897;SDS011;12957;49.434;8.684;2023-07-31T14:44:43;8.48;;;2.65;;
24897;SDS011;12957;49.434;8.684;2023-07-31T14:47:08;6.35;;;3.05;;
24897;SDS011;12957;49.434;8.684;2023-07-31T14:49:34;10.88;;;2.85;;
24897;SDS011;12957;49.434;8.684;2023-07-31T14:52:00;8.95;;;2.88;;
24897;SDS011;12957;49.434;8.684;2023-07-31T14:54:27;7.72;;;2.60;;
24897;SDS011;12957;49.434;8.684;2023-07-31T14:56:53;9.55;;;3.00;;
24897;SDS011;12957;49.434;8.684;2023-07-31T14:59:18;4.82;;;2.85;;
24897;SDS011;12957;49.434;8.684;2023-07-31T15:01:44;6.65;;;2.53;;
24897;SDS011;12957;49.434;8.684;2023-07-31T15:04:09;9.23;;;2.90;;